Terminal Aerodrome Forecast
Issued by NWS

Home | Current Version | Previous Version | Text Only | Print | Product List | Glossary On
Versions: 1 2 3 4 5 6 7 8 9 10 11 12 13 14
000
FTUS45 KRIW 232324
TAFCOD
TAF
KCOD 232324Z 2400/2424 35020G30KT 6SM -SN SCT013 OVC018
     FM240300 34011KT P6SM SCT020 BKN050
     FM241400 VRB04KT P6SM SKC
      AMD LTD TO CLD VIS AND WIND=

USA.gov is the U.S. government's official web portal to all federal, state and local government web resources and services.